createdAt,value
2018-02-19T01:23:42.299Z,101772.56
2018-02-19T01:26:08.288Z,101771.34
2018-02-19T01:28:34.312Z,101773.41
2018-02-19T01:31:00.286Z,101761.97
2018-02-19T01:33:26.275Z,101761.97
2018-02-19T01:35:52.237Z,101761.45
2018-02-19T01:38:18.194Z,101754.30
2018-02-19T01:40:44.198Z,101754.97
2018-02-19T01:43:10.207Z,101753.22
2018-02-19T01:45:40.039Z,101750.09
2018-02-19T01:48:06.062Z,101743.77
2018-02-19T01:50:32.046Z,101745.23
2018-02-19T01:52:58.011Z,101735.89
2018-02-19T01:55:23.985Z,101730.91
2018-02-19T01:57:50.009Z,101726.33
2018-02-19T02:00:15.982Z,101726.30
2018-02-19T02:02:42.018Z,101722.78
2018-02-19T02:05:07.990Z,101722.43
2018-02-19T02:07:34.083Z,101720.62
2018-02-19T02:10:00.078Z,101719.64
2018-02-19T02:12:26.058Z,101718.65
2018-02-19T02:14:52.045Z,101709.67
2018-02-19T02:17:17.995Z,101704.09
2018-02-19T02:19:43.990Z,101701.45
2018-02-19T02:22:09.966Z,101701.04
2018-02-19T02:24:35.927Z,101696.11
2018-02-19T02:27:01.914Z,101695.45
2018-02-19T02:29:27.888Z,101693.22
2018-02-19T02:31:53.851Z,101694.12
2018-02-19T02:34:19.826Z,101694.86
2018-02-19T02:36:49.710Z,101684.75
2018-02-19T02:39:15.670Z,101682.69
2018-02-19T02:41:41.636Z,101678.28
2018-02-19T02:44:07.594Z,101682.75
2018-02-19T02:46:33.574Z,101689.89
2018-02-19T02:48:59.559Z,101682.09
2018-02-19T02:51:25.523Z,101679.11
2018-02-19T02:53:51.503Z,101674.68
2018-02-19T02:56:17.469Z,101674.36
2018-02-19T02:58:43.451Z,101673.53
2018-02-19T03:01:09.483Z,101674.86
2018-02-19T03:03:35.447Z,101668.78
2018-02-19T03:06:01.419Z,101665.55
2018-02-19T03:08:27.386Z,101668.67
2018-02-19T03:10:53.348Z,101668.92
2018-02-19T03:13:19.294Z,101666.19
2018-02-19T03:15:45.322Z,101660.84
2018-02-19T03:18:11.292Z,101667.19
2018-02-19T03:20:37.296Z,101661.99
2018-02-19T03:23:03.259Z,101666.63
2018-02-19T03:25:29.318Z,101672.56
2018-02-19T03:27:55.288Z,101664.80
2018-02-19T03:30:21.244Z,101665.15
2018-02-19T03:32:47.250Z,101667.42
2018-02-19T03:35:13.195Z,101663.23
2018-02-19T03:37:39.166Z,101668.44
2018-02-19T03:40:05.140Z,101670.90
2018-02-19T03:42:31.107Z,101670.98
2018-02-19T03:44:57.097Z,101664.31
2018-02-19T03:47:23.062Z,101660.11
2018-02-19T03:49:49.032Z,101666.59
2018-02-19T03:52:15.024Z,101670.48
2018-02-19T03:54:40.995Z,101671.83
2018-02-19T03:57:06.991Z,101665.83
2018-02-19T03:59:32.957Z,101674.16
2018-02-19T04:01:58.927Z,101672.42
2018-02-19T04:04:24.892Z,101671.48
2018-02-19T04:06:50.849Z,101659.86
2018-02-19T04:09:16.849Z,101654.66
2018-02-19T04:11:42.829Z,101665.68
2018-02-19T04:14:08.783Z,101661.97
2018-02-19T04:16:34.903Z,101664.13
2018-02-19T04:19:00.869Z,101649.73
2018-02-19T04:21:26.826Z,101651.42
2018-02-19T04:23:52.818Z,101652.67
2018-02-19T04:26:18.774Z,101646.56
2018-02-19T04:28:44.758Z,101645.14
2018-02-19T04:31:10.722Z,101641.59
2018-02-19T04:33:36.683Z,101641.34
2018-02-19T04:36:02.650Z,101636.51
2018-02-19T04:38:28.618Z,101632.73
2018-02-19T04:40:54.579Z,101622.25
2018-02-19T04:43:20.538Z,101611.56
2018-02-19T04:45:46.478Z,101612.53
2018-02-19T04:48:12.448Z,101606.71
2018-02-19T04:50:38.417Z,101602.20
2018-02-19T04:53:04.398Z,101595.16
2018-02-19T04:55:30.356Z,101595.33
2018-02-19T04:57:56.357Z,101595.09
2018-02-19T05:00:22.354Z,101589.75
2018-02-19T05:02:48.322Z,101596.97
2018-02-19T05:05:14.274Z,101601.22
2018-02-19T05:07:40.230Z,101598.08
2018-02-19T05:10:06.241Z,101593.41
2018-02-19T05:12:32.213Z,101589.77
2018-02-19T05:14:58.202Z,101578.02
2018-02-19T05:17:24.285Z,101578.39
2018-02-19T05:19:50.288Z,101577.65
2018-02-19T05:22:16.311Z,101571.59
2018-02-19T05:24:42.275Z,101565.92
2018-02-19T05:27:08.241Z,101563.45
2018-02-19T05:29:34.204Z,101563.47
2018-02-19T05:32:00.161Z,101568.80
2018-02-19T05:34:26.135Z,101572.44
2018-02-19T05:36:52.133Z,101576.20
2018-02-19T05:39:18.089Z,101580.84
2018-02-19T05:41:44.053Z,101580.48
2018-02-19T05:44:10.018Z,101576.94
2018-02-19T05:46:35.996Z,101574.84
2018-02-19T05:49:01.943Z,101566.53
2018-02-19T05:51:27.929Z,101564.84
2018-02-19T05:53:53.882Z,101566.29
2018-02-19T05:56:19.859Z,101566.39
2018-02-19T05:58:45.868Z,101568.24
2018-02-19T06:01:11.838Z,101569.27
2018-02-19T06:03:37.820Z,101568.19
2018-02-19T06:06:03.785Z,101575.97
2018-02-19T06:08:29.763Z,101580.13
2018-02-19T06:10:55.769Z,101575.86
2018-02-19T06:13:21.698Z,101579.27
2018-02-19T06:15:47.719Z,101578.81
2018-02-19T06:18:13.690Z,101583.66
2018-02-19T06:20:39.661Z,101589.76
2018-02-19T06:23:05.630Z,101588.94
2018-02-19T06:25:31.630Z,101583.94
2018-02-19T06:27:57.608Z,101589.53
2018-02-19T06:30:23.557Z,101588.31
2018-02-19T06:32:49.533Z,101584.97
2018-02-19T06:35:15.498Z,101588.44
2018-02-19T06:37:41.483Z,101583.22
2018-02-19T06:40:07.474Z,101579.65
2018-02-19T06:42:33.422Z,101582.34
2018-02-19T06:44:59.406Z,101588.94
2018-02-19T06:47:25.401Z,101586.82
2018-02-19T06:49:51.370Z,101580.36
2018-02-19T06:52:17.350Z,101573.12
2018-02-19T06:54:43.306Z,101582.52
2018-02-19T06:57:09.273Z,101574.71
2018-02-19T06:59:35.253Z,101572.80
2018-02-19T07:02:01.255Z,101570.77
2018-02-19T07:04:27.221Z,101576.94
2018-02-19T07:06:53.185Z,101574.95
2018-02-19T07:09:19.150Z,101572.88
2018-02-19T07:11:45.110Z,101577.17
2018-02-19T07:14:11.089Z,101577.84
2018-02-19T07:16:37.058Z,101577.77
2018-02-19T07:19:03.031Z,101578.92
2018-02-19T07:21:28.991Z,101578.12
2018-02-19T07:23:54.969Z,101573.58
2018-02-19T07:26:20.927Z,101569.80
2018-02-19T07:28:46.891Z,101565.13
2018-02-19T07:31:12.841Z,101576.94
2018-02-19T07:33:38.804Z,101573.06
2018-02-19T07:36:04.783Z,101568.13
2018-02-19T07:38:30.730Z,101565.14
2018-02-19T07:40:56.692Z,101568.32
2018-02-19T07:45:54.504Z,101567.19
2018-02-19T07:48:20.469Z,101571.41
2018-02-19T07:50:46.431Z,101573.41
2018-02-19T07:53:12.386Z,101570.16
2018-02-19T07:55:38.354Z,101561.20
2018-02-19T07:58:04.340Z,101563.89
2018-02-19T08:00:30.311Z,101557.95
2018-02-19T08:02:56.279Z,101563.22
2018-02-19T08:05:22.225Z,101562.49
2018-02-19T08:07:48.178Z,101555.34
2018-02-19T08:10:14.161Z,101557.23
2018-02-19T08:12:40.169Z,101559.30
2018-02-19T08:15:06.115Z,101552.24
2018-02-19T08:17:32.095Z,101550.95
2018-02-19T08:19:58.074Z,101542.92
2018-02-19T08:22:24.060Z,101533.67
2018-02-19T08:24:50.019Z,101534.04
2018-02-19T08:27:15.985Z,101538.59
2018-02-19T08:29:41.985Z,101538.41
2018-02-19T08:32:07.936Z,101533.62
2018-02-19T08:34:33.973Z,101535.30
2018-02-19T08:36:59.901Z,101533.58
2018-02-19T08:39:25.885Z,101527.88
2018-02-19T08:41:51.854Z,101527.88
2018-02-19T08:46:49.234Z,101526.55
2018-02-19T08:49:15.206Z,101523.91
2018-02-19T08:51:41.196Z,101521.05
2018-02-19T08:54:07.157Z,101517.44
2018-02-19T08:56:34.214Z,101514.81
2018-02-19T08:59:00.169Z,101514.86
2018-02-19T09:01:26.154Z,101510.99
2018-02-19T09:03:52.184Z,101508.88
2018-02-19T09:06:18.166Z,101507.30
2018-02-19T09:08:44.124Z,101494.39
2018-02-19T09:11:10.136Z,101484.72
2018-02-19T09:13:36.150Z,101498.27
2018-02-19T09:16:02.085Z,101500.63
2018-02-19T09:18:28.069Z,101492.36
2018-02-19T09:20:54.064Z,101497.27
2018-02-19T09:23:20.035Z,101486.83
2018-02-19T09:25:46.025Z,101488.40
2018-02-19T09:28:11.999Z,101492.13
2018-02-19T09:30:37.965Z,101493.95
2018-02-19T09:33:03.926Z,101488.23
2018-02-19T09:35:29.878Z,101488.83
2018-02-19T09:37:55.879Z,101482.38
2018-02-19T09:40:21.840Z,101479.97
2018-02-19T09:42:47.798Z,101478.03
2018-02-19T09:45:13.758Z,101488.95
2018-02-19T09:47:39.742Z,101489.26
2018-02-19T09:50:05.754Z,101484.92
2018-02-19T09:52:31.717Z,101480.47
2018-02-19T09:54:57.679Z,101482.02
2018-02-19T09:57:23.631Z,101485.78
2018-02-19T09:59:49.607Z,101478.36
2018-02-19T10:02:15.597Z,101477.04
2018-02-19T10:04:41.577Z,101468.03
2018-02-19T10:07:07.566Z,101462.23
2018-02-19T10:09:33.509Z,101469.05
2018-02-19T10:11:59.465Z,101465.09
2018-02-19T10:14:25.445Z,101464.75
2018-02-19T10:16:51.394Z,101462.53
2018-02-19T10:19:17.371Z,101468.72
2018-02-19T10:21:43.356Z,101466.00
2018-02-19T10:24:09.326Z,101462.33
2018-02-19T10:26:35.285Z,101462.30
2018-02-19T10:29:01.259Z,101470.25
2018-02-19T10:31:27.230Z,101459.48
2018-02-19T10:33:53.195Z,101470.29
2018-02-19T10:36:19.187Z,101465.89
2018-02-19T10:38:45.161Z,101465.48
2018-02-19T10:41:11.118Z,101463.82
2018-02-19T10:43:37.074Z,101459.13
2018-02-19T10:46:03.064Z,101463.55
2018-02-19T10:48:29.063Z,101466.09
2018-02-19T10:50:54.985Z,101465.43
2018-02-19T10:53:20.962Z,101454.47
2018-02-19T10:55:46.949Z,101453.19
2018-02-19T10:58:12.945Z,101456.05
2018-02-19T11:00:38.908Z,101454.73
2018-02-19T11:03:04.889Z,101448.81
2018-02-19T11:05:30.860Z,101445.69
2018-02-19T11:07:56.838Z,101454.36
2018-02-19T11:10:22.844Z,101453.87
2018-02-19T11:12:48.831Z,101462.69
2018-02-19T11:15:14.802Z,101464.42
2018-02-19T11:17:40.814Z,101463.55
2018-02-19T11:20:06.782Z,101461.45
2018-02-19T11:22:32.759Z,101464.16
2018-02-19T11:24:58.753Z,101454.70
2018-02-19T11:27:24.714Z,101449.00
2018-02-19T11:29:50.721Z,101449.84
2018-02-19T11:32:16.674Z,101444.33
2018-02-19T11:34:42.650Z,101447.05
2018-02-19T11:37:08.602Z,101437.14
2018-02-19T11:39:34.565Z,101441.05
2018-02-19T11:42:00.530Z,101434.41
2018-02-19T11:44:26.490Z,101424.17
2018-02-19T11:46:52.465Z,101427.37
2018-02-19T11:49:18.411Z,101422.40
2018-02-19T11:51:44.398Z,101422.29
2018-02-19T11:54:10.380Z,101417.13
2018-02-19T11:56:36.347Z,101414.94
2018-02-19T11:59:02.314Z,101408.64
2018-02-19T12:01:28.332Z,101412.66
2018-02-19T12:03:54.323Z,101408.89
2018-02-19T12:06:20.351Z,101408.14
2018-02-19T12:08:46.362Z,101406.52
2018-02-19T12:11:12.359Z,101400.64
2018-02-19T12:13:38.311Z,101402.05
2018-02-19T12:16:04.299Z,101397.75
2018-02-19T12:18:30.352Z,101397.69
2018-02-19T12:20:56.310Z,101395.98
2018-02-19T12:23:22.274Z,101390.50
2018-02-19T12:25:48.545Z,101378.98
2018-02-19T12:28:14.602Z,101378.77
2018-02-19T12:30:40.603Z,101372.70
2018-02-19T12:33:06.559Z,101379.88
2018-02-19T12:35:32.587Z,101376.25
2018-02-19T12:37:58.678Z,101371.82
2018-02-19T12:40:24.647Z,101363.05
2018-02-19T12:42:50.606Z,101358.75
2018-02-19T12:45:16.558Z,101360.88
2018-02-19T12:47:42.542Z,101361.31
2018-02-19T12:50:08.506Z,101363.73
2018-02-19T12:52:34.458Z,101358.91
2018-02-19T12:55:00.431Z,101354.44
2018-02-19T12:57:26.413Z,101349.08
2018-02-19T12:59:52.377Z,101349.05
2018-02-19T13:02:18.343Z,101353.48
2018-02-19T13:04:44.330Z,101346.34
2018-02-19T13:07:10.298Z,101342.04
2018-02-19T13:09:36.446Z,101335.87
2018-02-19T13:12:02.444Z,101336.16
2018-02-19T13:14:28.479Z,101337.90
2018-02-19T13:16:54.435Z,101339.29
2018-02-19T13:19:20.406Z,101333.56
2018-02-19T13:21:46.354Z,101330.44
2018-02-19T13:24:12.355Z,101338.20
2018-02-19T13:26:38.344Z,101331.72
2018-02-19T13:29:04.343Z,101322.17
2018-02-19T13:31:30.558Z,101328.63
2018-02-19T13:33:56.558Z,101320.98
2018-02-19T13:36:22.553Z,101316.34
2018-02-19T13:38:48.574Z,101316.91
2018-02-19T13:41:14.578Z,101318.98
2018-02-19T13:43:40.531Z,101314.05
2018-02-19T13:46:06.505Z,101315.89
2018-02-19T13:48:32.487Z,101312.88
2018-02-19T13:50:58.518Z,101308.55
2018-02-19T13:53:24.482Z,101299.75
2018-02-19T13:55:50.442Z,101298.84
2018-02-19T13:58:16.433Z,101298.36
2018-02-19T14:00:42.381Z,101303.09
2018-02-19T14:03:08.384Z,101303.08
2018-02-19T14:05:34.346Z,101293.50
2018-02-19T14:08:00.314Z,101291.28
2018-02-19T14:10:26.426Z,101295.28
2018-02-19T14:12:52.424Z,101295.92
2018-02-19T14:15:18.374Z,101297.44
2018-02-19T14:17:44.597Z,101293.66
2018-02-19T14:20:10.588Z,101287.66
2018-02-19T14:22:36.565Z,101283.83
2018-02-19T14:25:02.545Z,101288.61
2018-02-19T14:27:28.507Z,101292.86
2018-02-19T14:29:54.602Z,101294.23
2018-02-19T14:32:20.623Z,101288.27
2018-02-19T14:34:46.610Z,101281.80
2018-02-19T14:37:12.607Z,101288.05
2018-02-19T14:39:38.618Z,101285.22
2018-02-19T14:42:04.800Z,101285.44
2018-02-19T14:44:30.766Z,101283.34
2018-02-19T14:46:56.815Z,101287.07
2018-02-19T14:49:22.764Z,101279.95
2018-02-19T14:51:48.742Z,101279.23
2018-02-19T14:54:14.806Z,101276.04
2018-02-19T14:56:40.779Z,101279.92
2018-02-19T14:59:06.748Z,101275.94
2018-02-19T15:01:32.803Z,101267.28
2018-02-19T15:03:58.796Z,101267.13
2018-02-19T15:06:24.784Z,101261.00
2018-02-19T15:08:50.853Z,101262.09
2018-02-19T15:11:16.830Z,101259.07
2018-02-19T15:13:42.766Z,101251.70
2018-02-19T15:16:08.720Z,101250.59
2018-02-19T15:18:34.762Z,101251.30
2018-02-19T15:21:00.750Z,101256.45
2018-02-19T15:23:26.729Z,101249.71
2018-02-19T15:25:52.766Z,101249.10
2018-02-19T15:28:18.769Z,101249.98
2018-02-19T15:30:44.754Z,101247.08
2018-02-19T15:33:10.752Z,101252.64
2018-02-19T15:35:36.715Z,101249.20
2018-02-19T15:38:02.670Z,101248.87
2018-02-19T15:40:28.724Z,101246.08
2018-02-19T15:42:54.721Z,101241.50
2018-02-19T15:45:20.684Z,101243.23
2018-02-19T15:47:46.646Z,101239.78
2018-02-19T15:50:12.599Z,101234.80
2018-02-19T15:52:38.655Z,101236.03
2018-02-19T15:55:04.622Z,101236.22
2018-02-19T15:57:30.615Z,101230.99
2018-02-19T15:59:56.586Z,101225.73
2018-02-19T16:02:22.587Z,101231.89
2018-02-19T16:04:48.588Z,101226.69
2018-02-19T16:07:14.550Z,101228.23
2018-02-19T16:09:40.519Z,101228.92
2018-02-19T16:12:06.599Z,101223.01
2018-02-19T16:14:32.626Z,101220.91
2018-02-19T16:16:58.586Z,101233.56
2018-02-19T16:19:24.570Z,101222.19
2018-02-19T16:21:50.506Z,101228.23
2018-02-19T16:24:16.490Z,101224.16
2018-02-19T16:26:42.561Z,101228.86
2018-02-19T16:29:08.561Z,101226.91
2018-02-19T16:31:34.540Z,101220.22
2018-02-19T16:34:00.487Z,101219.70
2018-02-19T16:36:26.485Z,101218.31
2018-02-19T16:38:52.487Z,101221.64
2018-02-19T16:41:18.456Z,101219.37
2018-02-19T16:43:44.424Z,101216.75
2018-02-19T16:46:10.397Z,101216.92
2018-02-19T16:48:36.384Z,101216.85
2018-02-19T16:51:02.433Z,101217.54
2018-02-19T16:53:28.390Z,101214.23
2018-02-19T16:55:54.383Z,101217.30
2018-02-19T16:58:20.354Z,101220.70
2018-02-19T17:00:46.339Z,101227.73
2018-02-19T17:03:12.353Z,101220.77
2018-02-19T17:05:38.310Z,101221.69
2018-02-19T17:08:04.270Z,101222.62
2018-02-19T17:10:30.270Z,101216.92
2018-02-19T17:12:56.216Z,101224.11
2018-02-19T17:15:22.229Z,101222.64
2018-02-19T17:17:48.212Z,101223.11
2018-02-19T17:20:14.201Z,101225.27
2018-02-19T17:22:40.182Z,101227.01
2018-02-19T17:25:06.166Z,101228.20
2018-02-19T17:27:32.150Z,101230.96
2018-02-19T17:29:58.124Z,101222.80
2018-02-19T17:32:24.094Z,101224.61
2018-02-19T17:34:50.055Z,101220.44
2018-02-19T17:37:16.061Z,101231.38
2018-02-19T17:39:42.035Z,101227.16
2018-02-19T17:42:08.016Z,101226.67
2018-02-19T17:44:34.044Z,101227.38
2018-02-19T17:47:00.058Z,101224.84
2018-02-19T17:49:26.007Z,101226.17
2018-02-19T17:51:51.971Z,101228.20
2018-02-19T17:54:17.962Z,101232.74
2018-02-19T17:56:43.966Z,101235.70
2018-02-19T17:59:09.919Z,101235.07
2018-02-19T18:01:35.868Z,101230.96
2018-02-19T18:04:01.839Z,101228.52
2018-02-19T18:06:27.812Z,101226.42
2018-02-19T18:08:53.758Z,101233.55
2018-02-19T18:11:19.732Z,101230.20
2018-02-19T18:13:45.710Z,101237.23
2018-02-19T18:16:11.708Z,101242.89
2018-02-19T18:18:37.669Z,101230.75
2018-02-19T18:21:03.644Z,101224.09
2018-02-19T18:23:29.625Z,101226.30
2018-02-19T18:25:55.591Z,101224.98
2018-02-19T18:28:21.580Z,101228.67
2018-02-19T18:30:47.563Z,101224.05
2018-02-19T18:33:13.557Z,101224.80
2018-02-19T18:35:39.587Z,101221.69
2018-02-19T18:38:05.573Z,101226.62
2018-02-19T18:40:31.551Z,101227.11
2018-02-19T18:42:57.528Z,101228.69
2018-02-19T18:45:23.530Z,101224.70
2018-02-19T18:47:49.518Z,101224.05
2018-02-19T18:50:15.509Z,101224.09
2018-02-19T18:52:41.464Z,101226.13
2018-02-19T18:55:07.454Z,101228.55
2018-02-19T18:57:33.434Z,101229.33
2018-02-19T18:59:59.402Z,101227.83
2018-02-19T19:02:25.385Z,101219.36
2018-02-19T19:04:51.376Z,101230.20
2018-02-19T19:07:17.333Z,101230.28
2018-02-19T19:09:43.305Z,101230.42
2018-02-19T19:12:09.278Z,101232.45
2018-02-19T19:14:35.261Z,101230.72
2018-02-19T19:17:01.219Z,101229.94
2018-02-19T19:19:27.198Z,101227.02
2018-02-19T19:21:53.193Z,101234.92
2018-02-19T19:24:19.152Z,101230.72
2018-02-19T19:26:45.107Z,101233.35
2018-02-19T19:29:11.122Z,101230.59
2018-02-19T19:31:37.118Z,101225.55
2018-02-19T19:34:03.088Z,101227.13
2018-02-19T19:36:29.075Z,101227.47
2018-02-19T19:38:55.092Z,101223.71
2018-02-19T19:41:21.076Z,101225.83
2018-02-19T19:43:47.047Z,101224.25
2018-02-19T19:46:13.011Z,101225.38
2018-02-19T19:48:38.976Z,101224.59
2018-02-19T19:51:04.974Z,101229.16
2018-02-19T19:53:30.935Z,101230.25
2018-02-19T19:55:56.916Z,101226.22
2018-02-19T19:58:22.891Z,101225.00
2018-02-19T20:00:48.885Z,101220.09
2018-02-19T20:03:14.849Z,101222.29
2018-02-19T20:05:40.841Z,101215.28
2018-02-19T20:08:06.817Z,101216.56
2018-02-19T20:10:32.763Z,101215.55
2018-02-19T20:12:58.720Z,101220.66
2018-02-19T20:15:24.704Z,101216.70
2018-02-19T20:17:50.674Z,101216.84
2018-02-19T20:20:16.653Z,101222.31
2018-02-19T20:22:42.605Z,101226.56
2018-02-19T20:25:08.577Z,101222.83
2018-02-19T20:27:34.547Z,101219.56
2018-02-19T20:30:00.530Z,101217.80
2018-02-19T20:32:26.506Z,101216.90
2018-02-19T20:34:52.472Z,101208.16
2018-02-19T20:37:18.454Z,101209.81
2018-02-19T20:39:44.454Z,101215.75
2018-02-19T20:42:10.615Z,101222.41
2018-02-19T20:44:36.584Z,101216.80
2018-02-19T20:47:02.551Z,101219.66
2018-02-19T20:49:28.513Z,101217.69
2018-02-19T20:51:54.509Z,101215.50
2018-02-19T20:54:20.483Z,101217.14
2018-02-19T20:56:46.729Z,101214.70
2018-02-19T20:59:12.674Z,101210.48
2018-02-19T21:01:38.671Z,101212.16
2018-02-19T21:04:04.639Z,101207.58
2018-02-19T21:06:30.608Z,101203.34
2018-02-19T21:08:56.578Z,101210.98
2018-02-19T21:11:22.533Z,101204.51
2018-02-19T21:13:48.502Z,101194.58
2018-02-19T21:16:14.625Z,101200.26
2018-02-19T21:18:40.892Z,101201.98
2018-02-19T21:21:06.902Z,101201.36
2018-02-19T21:23:32.948Z,101191.01
2018-02-19T21:25:58.923Z,101193.92
2018-02-19T21:28:24.919Z,101199.69
2018-02-19T21:30:50.890Z,101192.19
2018-02-19T21:33:16.871Z,101186.71
2018-02-19T21:35:42.845Z,101188.77
2018-02-19T21:38:08.892Z,101191.12
2018-02-19T21:40:34.870Z,101189.36
2018-02-19T21:43:00.880Z,101185.62
2018-02-19T21:45:26.843Z,101180.22
2018-02-19T21:47:52.811Z,101185.64
2018-02-19T21:50:18.854Z,101179.88
2018-02-19T21:52:44.897Z,101172.51
2018-02-19T21:55:11.079Z,101168.45
2018-02-19T21:57:37.034Z,101172.72
2018-02-19T22:00:03.014Z,101168.26
2018-02-19T22:02:29.017Z,101175.12
2018-02-19T22:04:54.995Z,101163.82
2018-02-19T22:07:20.961Z,101169.02
2018-02-19T22:09:46.933Z,101170.23
2018-02-19T22:12:12.890Z,101169.73
2018-02-19T22:14:38.892Z,101168.45
2018-02-19T22:17:04.865Z,101176.66
2018-02-19T22:19:30.882Z,101186.98
2018-02-19T22:21:56.852Z,101189.92
2018-02-19T22:24:22.867Z,101188.50
2018-02-19T22:26:48.850Z,101192.94
2018-02-19T22:29:14.802Z,101183.13
2018-02-19T22:31:40.880Z,101176.02
2018-02-19T22:34:06.838Z,101174.17
2018-02-19T22:36:32.808Z,101182.91
2018-02-19T22:38:58.758Z,101189.86
2018-02-19T22:41:24.730Z,101192.39
2018-02-19T22:43:50.689Z,101186.19
2018-02-19T22:46:16.651Z,101192.81
2018-02-19T22:48:42.628Z,101194.05
2018-02-19T22:51:08.583Z,101200.72
2018-02-19T22:53:34.591Z,101197.55
2018-02-19T22:56:00.581Z,101198.57
2018-02-19T22:58:26.557Z,101201.93
2018-02-19T23:00:52.536Z,101198.12
2018-02-19T23:03:18.478Z,101204.98
2018-02-19T23:05:44.466Z,101210.17
2018-02-19T23:08:10.435Z,101203.86
2018-02-19T23:10:36.395Z,101212.59
2018-02-19T23:13:02.392Z,101205.48
2018-02-19T23:15:28.353Z,101204.73
2018-02-19T23:17:54.341Z,101200.70
2018-02-19T23:20:20.313Z,101199.00
2018-02-19T23:22:46.302Z,101205.09
2018-02-19T23:25:12.267Z,101205.89
2018-02-19T23:27:38.258Z,101204.73
2018-02-19T23:30:04.220Z,101209.02
2018-02-19T23:32:30.236Z,101203.94
2018-02-19T23:34:56.211Z,101203.97
2018-02-19T23:37:22.176Z,101202.43
2018-02-19T23:39:48.215Z,101205.22
2018-02-19T23:42:14.178Z,101200.47
2018-02-19T23:44:40.191Z,101206.56
2018-02-19T23:47:06.170Z,101199.34
2018-02-19T23:49:32.135Z,101202.62
2018-02-19T23:51:58.088Z,101202.17
2018-02-19T23:54:24.084Z,101202.84
2018-02-19T23:56:50.085Z,101204.09
2018-02-19T23:59:16.047Z,101204.16
